LGKR/CFU METAR and TAF weather

Enter ICAO airport designator
Station Type Date Time Source
LGKR METAR 2019/10/15 08:20 UTC NOAA

LGKR 150820Z 20003KT 9999 SCT010 23/17 Q1018 NOSIG


Station Type Date Time Source
LGKR Decoded METAR 2019/10/15 08:20 UTC NOAA

Kerkyra Airport , Greece (LGKR) 39-37N 019-55E 4M
Oct 15, 2019 - 04:20 AM EDT / 2019.10.15 0820 UTC
Wind: from the SSW (200 degrees) at 3 MPH (3 KT):0
Visibility: greater than 7 mile(s):0
Sky conditions: partly cloudy
Temperature: 73 F (23 C)
Dew Point: 62 F (17 C)
Relative Humidity: 68%
Pressure (altimeter): 30.06 in. Hg (1018 hPa)
ob: LGKR 150820Z 20003KT 9999 SCT010 23/17 Q1018 NOSIG
cycle: 8

Station Type Date Time Source
LGKR TAF 2019/10/15 06:16 UTC NOAA

TAF LGKR 150500Z 1506/1606 VRB03KT 9999 FEW018

Example: see airport list